Time;durP1;ratioP1;P1;durP2;ratioP2;P2;SDS_P1;SDS_P2;PMS_P1;PMS_P2;Temp;Humidity;BMP_temperature;BMP_pressure;BME280_temperature;BME280_humidity;BME280_pressure;Samples;Min_cycle;Max_cycle;Signal;HPM_P1;HPM_P2
2022/12/01 00:01:23;;;;;;;;;;;4.50;99.90;;;;;;5003113;28;19924;-72
2022/12/01 00:03:48;;;;;;;;;;;4.50;99.90;;;;;;4981677;28;20056;-73
2022/12/01 00:06:15;;;;;;;;;;;4.50;99.90;;;;;;4982529;28;20016;-72
2022/12/01 00:10:24;;;;;;;;;;;4.60;99.90;;;;;;4996318;28;19969;-71
2022/12/01 00:11:27;;;;;;;;;;;4.60;99.90;;;;;;4998879;28;19925;-72
2022/12/01 00:13:52;;;;;;;;;;;4.60;99.90;;;;;;4998273;28;19917;-73
2022/12/01 00:16:18;;;;;;;;;;;4.70;99.90;;;;;;4997249;28;20497;-72
2022/12/01 00:18:43;;;;;;;;;;;4.70;99.90;;;;;;4999412;28;19913;-73
2022/12/01 00:21:13;;;;;;;;;;;4.80;99.90;;;;;;4996235;28;19980;-71
2022/12/01 00:23:41;;;;;;;;;;;4.80;99.90;;;;;;4999311;28;20461;-73
2022/12/01 00:26:06;;;;;;;;;;;4.90;99.90;;;;;;4996893;28;20023;-72
2022/12/01 00:28:32;;;;;;;;;;;4.90;99.90;;;;;;4999112;28;20375;-72
2022/12/01 00:30:58;;;;;;;;;;;5.00;99.90;;;;;;4997663;28;19913;-73
2022/12/01 00:33:24;;;;;;;;;;;5.00;99.90;;;;;;4985185;28;19918;-72
2022/12/01 00:35:49;;;;;;;;;;;5.10;99.90;;;;;;5004910;28;19920;-72
2022/12/01 00:38:15;;;;;;;;;;;5.20;99.90;;;;;;4983595;28;19918;-73
2022/12/01 00:40:41;;;;;;;;;;;5.20;99.90;;;;;;4999200;28;19964;-73
2022/12/01 00:43:06;;;;;;;;;;;5.20;99.90;;;;;;4985335;28;19928;-72
2022/12/01 00:45:32;;;;;;;;;;;5.20;99.90;;;;;;4983097;28;19928;-72
2022/12/01 00:47:57;;;;;;;;;;;5.20;99.90;;;;;;5001405;28;19924;-72
2022/12/01 00:50:22;;;;;;;;;;;5.20;99.90;;;;;;5002476;28;20272;-72
2022/12/01 00:52:48;;;;;;;;;;;5.30;99.90;;;;;;4986944;28;19910;-73
2022/12/01 00:55:13;;;;;;;;;;;5.30;99.90;;;;;;5002668;28;19917;-72
2022/12/01 00:57:39;;;;;;;;;;;5.30;99.90;;;;;;4981072;28;19917;-72
2022/12/01 01:00:05;;;;;;;;;;;5.30;99.90;;;;;;5002017;28;19917;-72
2022/12/01 01:02:31;;;;;;;;;;;5.40;99.90;;;;;;5000217;28;19918;-71
2022/12/01 01:04:56;;;;;;;;;;;5.40;99.90;;;;;;5001516;28;19914;-72
2022/12/01 01:07:22;;;;;;;;;;;5.50;99.90;;;;;;5002018;28;19917;-72
2022/12/01 01:09:47;;;;;;;;;;;5.50;99.90;;;;;;5004336;28;19975;-72
2022/12/01 01:12:13;;;;;;;;;;;5.50;99.90;;;;;;5004789;28;19914;-73
2022/12/01 01:14:38;;;;;;;;;;;5.60;99.90;;;;;;4985885;28;19957;-72
2022/12/01 01:17:04;;;;;;;;;;;5.60;99.90;;;;;;4989741;28;19940;-73
2022/12/01 01:19:29;;;;;;;;;;;5.60;99.90;;;;;;5002591;28;19917;-72
2022/12/01 01:21:55;;;;;;;;;;;5.70;99.90;;;;;;4983841;28;19929;-73
2022/12/01 01:24:20;;;;;;;;;;;5.70;99.90;;;;;;5001166;28;20289;-73
2022/12/01 01:26:46;;;;;;;;;;;5.70;99.90;;;;;;5003318;28;20000;-73
2022/12/01 01:29:11;;;;;;;;;;;5.70;99.90;;;;;;4999262;28;20600;-72
2022/12/01 01:31:37;;;;;;;;;;;5.80;99.90;;;;;;5002032;28;19917;-71
2022/12/01 01:34:02;;;;;;;;;;;5.80;99.90;;;;;;4985910;28;19925;-73
2022/12/01 01:36:28;;;;;;;;;;;5.80;99.90;;;;;;5000006;28;19918;-72
2022/12/01 01:38:54;;;;;;;;;;;5.80;99.90;;;;;;5000960;28;19917;-72
2022/12/01 01:41:20;;;;;;;;;;;5.80;99.90;;;;;;5001442;28;19929;-72
2022/12/01 01:43:47;;;;;;;;;;;5.90;99.90;;;;;;5006533;28;19913;-72
2022/12/01 01:46:32;;;;;;;;;;;5.90;99.90;;;;;;5000521;28;20432;-73
2022/12/01 01:49:02;;;;;;;;;;;5.90;99.90;;;;;;4999514;28;20379;-73
2022/12/01 01:51:41;;;;;;;;;;;5.90;99.90;;;;;;5000223;28;19918;-73
2022/12/01 01:54:14;;;;;;;;;;;5.90;99.90;;;;;;5002366;28;19914;-72
2022/12/01 01:56:41;;;;;;;;;;;5.90;99.90;;;;;;4998658;28;19926;-73
2022/12/01 01:59:06;;;;;;;;;;;5.90;99.90;;;;;;4984588;28;20385;-73
2022/12/01 02:01:32;;;;;;;;;;;5.90;99.90;;;;;;5002644;28;19921;-73
2022/12/01 02:03:58;;;;;;;;;;;5.90;99.90;;;;;;4996802;28;19984;-72
2022/12/01 02:06:23;;;;;;;;;;;5.90;99.90;;;;;;5015476;28;19922;-73
2022/12/01 02:08:49;;;;;;;;;;;5.90;99.90;;;;;;4999003;28;19918;-72
2022/12/01 02:11:20;;;;;;;;;;;5.90;99.90;;;;;;5000478;28;19918;-74
2022/12/01 02:13:58;;;;;;;;;;;5.90;99.90;;;;;;5000909;28;19913;-73
2022/12/01 02:16:40;;;;;;;;;;;5.90;99.90;;;;;;5000738;28;19964;-71
2022/12/01 02:19:15;;;;;;;;;;;5.90;99.90;;;;;;4998645;28;20417;-72
2022/12/01 02:22:06;;;;;;;;;;;5.90;99.90;;;;;;4998467;28;20433;-73
2022/12/01 02:24:38;;;;;;;;;;;5.90;99.90;;;;;;4997864;28;20005;-73
2022/12/01 02:27:07;;;;;;;;;;;5.90;99.90;;;;;;5001754;28;20059;-73
2022/12/01 02:29:51;;;;;;;;;;;5.90;99.90;;;;;;4980664;28;19913;-72
2022/12/01 02:32:28;;;;;;;;;;;5.90;99.90;;;;;;4982627;28;19925;-73
2022/12/01 02:34:56;;;;;;;;;;;5.90;99.90;;;;;;5008143;28;19918;-72
2022/12/01 02:37:33;;;;;;;;;;;5.90;99.90;;;;;;5005103;28;19917;-74
2022/12/01 02:39:59;;;;;;;;;;;5.90;99.90;;;;;;4985881;28;19941;-73
2022/12/01 02:42:52;;;;;;;;;;;5.90;99.90;;;;;;5000287;28;19952;-74
2022/12/01 02:45:29;;;;;;;;;;;5.90;99.90;;;;;;5004298;28;20008;-73
2022/12/01 02:47:58;;;;;;;;;;;5.90;99.90;;;;;;4999813;28;19914;-72
2022/12/01 02:50:24;;;;;;;;;;;5.90;99.90;;;;;;4982233;28;19964;-72
2022/12/01 02:52:51;;;;;;;;;;;5.90;99.90;;;;;;5003308;28;19940;-74
2022/12/01 02:55:16;;;;;;;;;;;6.00;99.90;;;;;;5003805;28;20457;-72
2022/12/01 02:57:42;;;;;;;;;;;6.00;99.90;;;;;;5001874;28;19945;-73
2022/12/01 03:00:12;;;;;;;;;;;6.00;99.90;;;;;;5001488;28;19964;-74
2022/12/01 03:02:52;;;;;;;;;;;6.00;99.90;;;;;;4980504;28;19937;-72
2022/12/01 03:05:38;;;;;;;;;;;6.00;99.90;;;;;;4998925;28;19913;-73
2022/12/01 03:08:04;;;;;;;;;;;6.00;99.90;;;;;;4969308;28;19910;-73
2022/12/01 03:10:51;;;;;;;;;;;6.00;99.90;;;;;;5000923;28;19913;-73
2022/12/01 03:13:16;;;;;;;;;;;6.10;99.90;;;;;;5001326;28;19916;-73
2022/12/01 03:15:54;;;;;;;;;;;6.10;99.90;;;;;;4997608;28;20000;-73
2022/12/01 03:18:20;;;;;;;;;;;6.10;99.90;;;;;;4999044;28;19921;-73
2022/12/01 03:20:49;;;;;;;;;;;6.00;99.90;;;;;;4981059;28;19972;-72
2022/12/01 03:23:19;;;;;;;;;;;6.00;99.90;;;;;;4999475;28;19962;-73
2022/12/01 03:25:46;;;;;;;;;;;6.10;99.90;;;;;;5005681;28;19917;-74
2022/12/01 03:28:14;;;;;;;;;;;6.00;99.90;;;;;;5004105;28;19913;-72
2022/12/01 03:30:41;;;;;;;;;;;6.00;99.90;;;;;;4997917;28;19925;-73
2022/12/01 03:33:13;;;;;;;;;;;6.00;99.90;;;;;;4982554;28;19909;-72
2022/12/01 03:35:42;;;;;;;;;;;6.00;99.90;;;;;;5003200;28;19949;-74
2022/12/01 03:38:12;;;;;;;;;;;6.00;99.90;;;;;;4986264;28;19913;-73
2022/12/01 03:40:38;;;;;;;;;;;6.00;99.90;;;;;;4999937;28;19910;-73
2022/12/01 03:43:06;;;;;;;;;;;6.00;99.90;;;;;;5000411;28;19919;-73
2022/12/01 03:45:35;;;;;;;;;;;6.00;99.90;;;;;;4996699;28;19909;-72
2022/12/01 03:48:00;;;;;;;;;;;6.00;99.90;;;;;;4996983;28;19933;-72
2022/12/01 03:50:33;;;;;;;;;;;6.00;99.90;;;;;;4999996;28;19913;-73
2022/12/01 03:53:01;;;;;;;;;;;6.00;99.90;;;;;;5001054;28;19913;-73
2022/12/01 03:55:32;;;;;;;;;;;6.00;99.90;;;;;;4995720;28;19933;-73
2022/12/01 03:58:12;;;;;;;;;;;5.90;99.90;;;;;;4997111;28;19913;-73
2022/12/01 04:00:37;;;;;;;;;;;5.90;99.90;;;;;;4997184;28;19914;-72
2022/12/01 04:03:03;;;;;;;;;;;5.90;99.90;;;;;;4999964;28;19936;-74
2022/12/01 04:05:29;;;;;;;;;;;5.90;99.90;;;;;;4999138;28;19964;-71
2022/12/01 04:07:55;;;;;;;;;;;5.90;99.90;;;;;;4979593;28;19921;-73
2022/12/01 04:10:20;;;;;;;;;;;5.80;99.90;;;;;;4999616;28;19921;-73
2022/12/01 04:12:46;;;;;;;;;;;5.90;99.90;;;;;;4980767;28;19910;-73
2022/12/01 04:15:13;;;;;;;;;;;5.90;99.90;;;;;;5000150;28;19914;-74
2022/12/01 04:17:42;;;;;;;;;;;5.80;99.90;;;;;;5005476;28;19996;-72
2022/12/01 04:20:09;;;;;;;;;;;5.90;99.90;;;;;;5006184;28;19940;-73
2022/12/01 04:22:35;;;;;;;;;;;5.90;99.90;;;;;;4985273;28;19983;-73
2022/12/01 04:25:01;;;;;;;;;;;5.90;99.90;;;;;;4982865;28;19921;-73
2022/12/01 04:27:26;;;;;;;;;;;5.90;99.90;;;;;;5004280;28;19918;-74
2022/12/01 04:29:51;;;;;;;;;;;5.80;99.90;;;;;;5005653;28;19918;-73
2022/12/01 04:32:17;;;;;;;;;;;5.80;99.90;;;;;;5006255;28;19909;-74
2022/12/01 04:34:42;;;;;;;;;;;5.80;99.90;;;;;;4989438;28;20372;-73
2022/12/01 04:37:08;;;;;;;;;;;5.80;99.90;;;;;;5007574;28;19973;-72
2022/12/01 04:39:34;;;;;;;;;;;5.80;99.90;;;;;;5006867;28;19982;-73
2022/12/01 04:42:00;;;;;;;;;;;5.80;99.90;;;;;;5011653;28;20421;-72
2022/12/01 04:44:26;;;;;;;;;;;5.80;99.90;;;;;;4991011;28;19921;-74
2022/12/01 04:46:54;;;;;;;;;;;5.80;99.90;;;;;;5011475;28;19972;-73
2022/12/01 04:49:20;;;;;;;;;;;5.80;99.90;;;;;;5007773;28;20032;-72
2022/12/01 04:51:46;;;;;;;;;;;5.80;99.90;;;;;;5000555;28;20645;-74
2022/12/01 04:54:11;;;;;;;;;;;5.70;99.90;;;;;;5003372;28;19910;-73
2022/12/01 04:56:37;;;;;;;;;;;5.70;99.90;;;;;;5001993;28;19913;-72
2022/12/01 04:59:02;;;;;;;;;;;5.80;99.90;;;;;;5000673;28;19909;-73
2022/12/01 05:01:28;;;;;;;;;;;5.70;99.90;;;;;;5003162;28;20730;-74
2022/12/01 05:03:53;;;;;;;;;;;5.70;99.90;;;;;;4999592;28;19920;-73
2022/12/01 05:06:20;;;;;;;;;;;5.70;99.90;;;;;;5002518;28;19917;-72
2022/12/01 05:08:46;;;;;;;;;;;5.70;99.90;;;;;;4984776;28;20006;-73
2022/12/01 05:11:12;;;;;;;;;;;5.60;99.90;;;;;;4989871;28;19909;-73
2022/12/01 05:13:39;;;;;;;;;;;5.60;99.90;;;;;;5003731;28;19909;-73
2022/12/01 05:16:12;;;;;;;;;;;5.60;99.90;;;;;;5000758;28;19918;-72
2022/12/01 05:18:38;;;;;;;;;;;5.60;99.90;;;;;;4985877;28;19913;-73
2022/12/01 05:21:04;;;;;;;;;;;5.50;99.90;;;;;;5001751;28;19967;-73
2022/12/01 05:23:31;;;;;;;;;;;5.50;99.90;;;;;;4980774;28;19924;-73
2022/12/01 05:25:56;;;;;;;;;;;5.50;99.90;;;;;;4986264;28;19924;-74
2022/12/01 05:28:23;;;;;;;;;;;5.50;99.90;;;;;;4999167;28;20281;-73
2022/12/01 05:30:49;;;;;;;;;;;5.40;99.90;;;;;;5004209;28;20422;-73
2022/12/01 05:33:15;;;;;;;;;;;5.50;99.90;;;;;;4983885;28;20285;-72
2022/12/01 05:35:40;;;;;;;;;;;5.40;99.90;;;;;;4998496;28;19921;-72
2022/12/01 05:38:06;;;;;;;;;;;5.40;99.90;;;;;;5000189;28;20325;-72
2022/12/01 05:40:32;;;;;;;;;;;5.40;99.90;;;;;;5005052;28;19914;-72
2022/12/01 05:42:57;;;;;;;;;;;5.40;99.90;;;;;;5001601;28;19968;-72
2022/12/01 05:45:23;;;;;;;;;;;5.40;99.90;;;;;;5000538;28;20294;-73
2022/12/01 05:47:49;;;;;;;;;;;5.40;99.90;;;;;;5004350;28;20011;-73
2022/12/01 05:50:14;;;;;;;;;;;5.40;99.90;;;;;;4998613;28;20329;-72
2022/12/01 05:52:40;;;;;;;;;;;5.40;99.90;;;;;;5006753;28;19921;-71
2022/12/01 05:55:06;;;;;;;;;;;5.40;99.90;;;;;;4998467;28;20004;-73
2022/12/01 05:57:32;;;;;;;;;;;5.40;99.90;;;;;;5000340;28;19917;-73
2022/12/01 05:59:58;;;;;;;;;;;5.40;99.90;;;;;;4983575;28;19914;-72
2022/12/01 06:02:25;;;;;;;;;;;5.40;99.90;;;;;;5007467;28;20063;-71
2022/12/01 06:04:51;;;;;;;;;;;5.40;99.90;;;;;;4999002;28;20424;-73
2022/12/01 06:07:16;;;;;;;;;;;5.40;99.90;;;;;;4996145;28;19925;-73
2022/12/01 06:09:44;;;;;;;;;;;5.30;99.90;;;;;;5008038;28;19953;-72
2022/12/01 06:12:09;;;;;;;;;;;5.30;99.90;;;;;;5010694;28;19981;-72
2022/12/01 06:14:35;;;;;;;;;;;5.30;99.90;;;;;;5018436;28;19926;-72
2022/12/01 06:17:00;;;;;;;;;;;5.30;99.90;;;;;;5014656;28;19971;-72
2022/12/01 06:19:26;;;;;;;;;;;5.40;99.90;;;;;;5014166;28;19914;-73
2022/12/01 06:21:51;;;;;;;;;;;5.30;99.90;;;;;;4982048;28;20374;-71
2022/12/01 06:24:17;;;;;;;;;;;5.30;99.90;;;;;;5000261;28;19913;-70
2022/12/01 06:26:42;;;;;;;;;;;5.30;99.90;;;;;;4999222;28;19917;-71
2022/12/01 06:29:08;;;;;;;;;;;5.30;99.90;;;;;;5007610;28;19980;-73
2022/12/01 06:31:34;;;;;;;;;;;5.30;99.90;;;;;;5007739;28;19928;-73
2022/12/01 06:33:59;;;;;;;;;;;5.30;99.90;;;;;;5008218;28;20407;-73
2022/12/01 06:36:25;;;;;;;;;;;5.30;99.90;;;;;;5007768;28;19999;-72
2022/12/01 06:38:50;;;;;;;;;;;5.30;99.90;;;;;;5004477;28;19922;-72
2022/12/01 06:41:16;;;;;;;;;;;5.30;99.90;;;;;;5013708;28;19933;-72
2022/12/01 06:43:41;;;;;;;;;;;5.30;99.90;;;;;;5014059;28;20043;-71
2022/12/01 06:46:07;;;;;;;;;;;5.30;99.90;;;;;;5008958;28;19921;-71
2022/12/01 06:48:33;;;;;;;;;;;5.30;99.90;;;;;;4995880;28;20008;-71
2022/12/01 06:50:59;;;;;;;;;;;5.20;99.90;;;;;;5009976;28;19913;-72
2022/12/01 06:53:28;;;;;;;;;;;5.20;99.90;;;;;;5013411;28;19952;-72
2022/12/01 06:55:54;;;;;;;;;;;5.20;99.90;;;;;;4986607;28;20652;-73
2022/12/01 06:58:19;;;;;;;;;;;5.10;99.90;;;;;;4978440;28;19918;-71
2022/12/01 07:00:44;;;;;;;;;;;5.10;99.90;;;;;;4998071;28;19921;-73
2022/12/01 07:03:12;;;;;;;;;;;5.10;99.90;;;;;;4995722;28;19948;-73
2022/12/01 07:05:37;;;;;;;;;;;5.20;99.90;;;;;;4986218;28;19963;-73
2022/12/01 07:08:03;;;;;;;;;;;5.20;99.90;;;;;;4999355;28;19952;-73
2022/12/01 07:10:28;;;;;;;;;;;5.10;99.90;;;;;;4981430;28;19914;-72
2022/12/01 07:12:57;;;;;;;;;;;5.10;99.90;;;;;;5001442;28;19924;-72
2022/12/01 07:15:23;;;;;;;;;;;5.10;99.90;;;;;;4997525;28;20382;-71
2022/12/01 07:17:49;;;;;;;;;;;5.10;99.90;;;;;;5001484;28;19918;-71
2022/12/01 07:20:14;;;;;;;;;;;5.00;99.90;;;;;;4997769;28;19913;-73
2022/12/01 07:22:41;;;;;;;;;;;5.00;99.90;;;;;;4999719;28;19927;-72
2022/12/01 07:25:07;;;;;;;;;;;5.00;99.90;;;;;;4998333;28;20460;-73
2022/12/01 07:27:33;;;;;;;;;;;5.00;99.90;;;;;;4998929;28;19953;-71
2022/12/01 07:29:59;;;;;;;;;;;5.00;99.90;;;;;;4999167;28;20432;-73
2022/12/01 07:32:24;;;;;;;;;;;5.00;99.90;;;;;;4980034;28;20345;-73
2022/12/01 07:34:49;;;;;;;;;;;5.00;99.90;;;;;;4999995;28;19944;-75
2022/12/01 07:37:15;;;;;;;;;;;4.90;99.90;;;;;;4980159;28;19921;-74
2022/12/01 07:39:40;;;;;;;;;;;4.90;99.90;;;;;;4999507;28;19923;-74
2022/12/01 07:42:06;;;;;;;;;;;4.90;99.90;;;;;;5018151;28;19917;-73
2022/12/01 07:44:31;;;;;;;;;;;4.90;99.90;;;;;;5011230;28;19922;-74
2022/12/01 07:46:57;;;;;;;;;;;4.90;99.90;;;;;;5003434;28;19918;-73
2022/12/01 07:49:23;;;;;;;;;;;4.90;99.90;;;;;;5003310;28;19967;-73
2022/12/01 07:51:48;;;;;;;;;;;4.90;99.90;;;;;;4987406;28;19920;-73
2022/12/01 07:54:14;;;;;;;;;;;4.90;99.90;;;;;;5004940;28;19913;-74
2022/12/01 07:56:39;;;;;;;;;;;4.90;99.90;;;;;;5000994;28;20544;-73
2022/12/01 07:59:05;;;;;;;;;;;4.90;99.90;;;;;;5002769;28;19929;-74
2022/12/01 08:01:30;;;;;;;;;;;4.90;99.90;;;;;;4998841;28;19918;-74
2022/12/01 08:03:57;;;;;;;;;;;5.00;99.90;;;;;;4980005;28;19914;-73
2022/12/01 08:06:23;;;;;;;;;;;4.90;99.90;;;;;;4999869;28;19972;-74
2022/12/01 08:08:48;;;;;;;;;;;5.00;99.90;;;;;;5000484;28;20337;-71
2022/12/01 08:11:15;;;;;;;;;;;5.00;99.90;;;;;;4982811;28;19914;-73
2022/12/01 08:13:41;;;;;;;;;;;5.00;99.90;;;;;;4996495;28;19920;-73
2022/12/01 08:16:08;;;;;;;;;;;5.10;99.90;;;;;;4982051;28;19914;-73
2022/12/01 08:18:34;;;;;;;;;;;5.00;99.90;;;;;;4998052;28;20336;-73
2022/12/01 08:20:59;;;;;;;;;;;5.10;99.90;;;;;;4998379;28;19917;-74
2022/12/01 08:23:25;;;;;;;;;;;5.20;99.90;;;;;;4999969;28;19922;-73
2022/12/01 08:25:51;;;;;;;;;;;5.20;99.90;;;;;;4982510;28;19939;-73
2022/12/01 08:28:17;;;;;;;;;;;5.20;99.90;;;;;;4996628;28;19913;-73
2022/12/01 08:30:43;;;;;;;;;;;5.20;99.90;;;;;;5000665;28;19956;-73
2022/12/01 08:33:08;;;;;;;;;;;5.20;99.90;;;;;;4982401;28;20331;-73
2022/12/01 08:35:35;;;;;;;;;;;5.30;99.90;;;;;;5002405;28;19944;-73
2022/12/01 08:38:00;;;;;;;;;;;5.30;99.90;;;;;;4982367;28;19922;-73
2022/12/01 08:40:25;;;;;;;;;;;5.30;99.90;;;;;;4998838;28;19917;-74
2022/12/01 08:42:51;;;;;;;;;;;5.40;99.90;;;;;;5006359;28;20366;-73
2022/12/01 08:45:17;;;;;;;;;;;5.50;99.90;;;;;;5007924;28;20518;-73
2022/12/01 08:47:42;;;;;;;;;;;5.50;99.90;;;;;;4999594;28;19925;-73
2022/12/01 08:50:09;;;;;;;;;;;5.60;99.90;;;;;;4999853;28;19953;-73
2022/12/01 08:52:35;;;;;;;;;;;5.60;99.90;;;;;;4997651;28;19924;-72
2022/12/01 08:55:00;;;;;;;;;;;5.70;99.90;;;;;;4998075;28;19918;-72
2022/12/01 08:57:27;;;;;;;;;;;5.70;99.90;;;;;;4998134;28;19917;-73
2022/12/01 08:59:53;;;;;;;;;;;5.70;99.90;;;;;;4997489;28;19925;-73
2022/12/01 09:02:21;;;;;;;;;;;5.80;99.90;;;;;;5003252;28;19914;-71
2022/12/01 09:04:48;;;;;;;;;;;5.80;99.90;;;;;;5000339;28;20412;-72
2022/12/01 09:07:15;;;;;;;;;;;5.90;99.90;;;;;;5002938;28;20401;-73
2022/12/01 09:09:41;;;;;;;;;;;5.90;99.90;;;;;;4999568;28;19922;-72
2022/12/01 09:12:07;;;;;;;;;;;5.90;99.90;;;;;;4999808;28;19918;-73
2022/12/01 09:14:40;;;;;;;;;;;5.90;99.90;;;;;;5001829;28;19920;-72
2022/12/01 09:17:06;;;;;;;;;;;5.90;99.90;;;;;;5000165;28;19920;-73
2022/12/01 09:19:32;;;;;;;;;;;6.00;99.90;;;;;;5002450;28;20374;-73
2022/12/01 09:21:58;;;;;;;;;;;6.00;99.90;;;;;;5001265;28;19914;-73
2022/12/01 09:24:23;;;;;;;;;;;6.00;99.90;;;;;;4985409;28;19913;-72
2022/12/01 09:26:49;;;;;;;;;;;6.10;99.90;;;;;;5008344;28;19957;-72
2022/12/01 09:29:15;;;;;;;;;;;6.00;99.90;;;;;;4999747;28;19920;-73
2022/12/01 09:31:41;;;;;;;;;;;6.10;99.90;;;;;;4985129;28;19949;-73
2022/12/01 09:34:07;;;;;;;;;;;6.10;99.90;;;;;;5003810;28;19964;-73
2022/12/01 09:36:34;;;;;;;;;;;6.10;99.90;;;;;;4989216;28;19925;-73
2022/12/01 09:38:59;;;;;;;;;;;6.10;99.90;;;;;;5004445;28;19975;-72
2022/12/01 09:41:27;;;;;;;;;;;6.20;99.90;;;;;;5002306;28;19917;-72
2022/12/01 09:43:58;;;;;;;;;;;6.20;99.90;;;;;;5005581;28;19917;-73
2022/12/01 09:46:26;;;;;;;;;;;6.30;99.90;;;;;;5000361;28;20340;-73
2022/12/01 09:48:52;;;;;;;;;;;6.30;99.90;;;;;;5002514;28;20366;-73
2022/12/01 09:51:21;;;;;;;;;;;6.40;99.90;;;;;;5000477;28;19977;-72
2022/12/01 09:53:49;;;;;;;;;;;6.40;99.90;;;;;;5001621;28;19913;-73
2022/12/01 09:56:24;;;;;;;;;;;6.40;99.90;;;;;;4999391;28;19921;-72
2022/12/01 09:59:00;;;;;;;;;;;6.50;99.90;;;;;;4983819;28;19924;-72
2022/12/01 10:01:36;;;;;;;;;;;6.60;99.90;;;;;;5000490;28;19913;-72
2022/12/01 10:04:08;;;;;;;;;;;6.50;99.90;;;;;;4997996;28;19929;-72
2022/12/01 10:06:46;;;;;;;;;;;6.60;99.90;;;;;;5000537;28;19924;-73
2022/12/01 10:09:24;;;;;;;;;;;6.70;99.90;;;;;;5003122;28;19920;-73
2022/12/01 10:11:51;;;;;;;;;;;6.70;99.90;;;;;;4981827;28;19918;-73
2022/12/01 10:14:18;;;;;;;;;;;6.70;99.90;;;;;;5002559;28;19940;-73
2022/12/01 10:16:50;;;;;;;;;;;6.70;99.90;;;;;;5003066;28;23132;-72
2022/12/01 10:19:18;;;;;;;;;;;6.70;99.90;;;;;;5001818;28;21273;-73
2022/12/01 10:21:50;;;;;;;;;;;6.80;99.90;;;;;;4999244;28;19929;-73
2022/12/01 10:24:22;;;;;;;;;;;6.80;99.90;;;;;;5000296;28;20289;-73
2022/12/01 10:26:53;;;;;;;;;;;6.80;99.90;;;;;;5002162;28;19940;-74
2022/12/01 10:29:37;;;;;;;;;;;6.80;99.90;;;;;;5001724;28;19922;-74
2022/12/01 10:32:21;;;;;;;;;;;6.80;99.90;;;;;;5017699;28;19937;-74
2022/12/01 10:34:47;;;;;;;;;;;6.90;99.90;;;;;;5007048;28;19914;-73
2022/12/01 10:37:15;;;;;;;;;;;6.90;99.90;;;;;;5014498;28;20071;-73
2022/12/01 10:39:42;;;;;;;;;;;6.90;99.90;;;;;;4985781;28;19913;-73
2022/12/01 10:42:17;;;;;;;;;;;7.00;99.90;;;;;;4998636;28;19918;-72
2022/12/01 10:44:43;;;;;;;;;;;7.00;99.90;;;;;;5000421;28;19924;-73
2022/12/01 10:47:18;;;;;;;;;;;7.00;99.90;;;;;;5011468;28;20305;-73
2022/12/01 10:49:43;;;;;;;;;;;7.20;99.90;;;;;;4987218;28;20304;-73
2022/12/01 10:52:28;;;;;;;;;;;7.30;99.90;;;;;;4979819;28;20000;-73
2022/12/01 10:54:53;;;;;;;;;;;7.30;99.90;;;;;;4999692;28;19920;-72
2022/12/01 10:57:19;;;;;;;;;;;7.40;99.90;;;;;;4999780;28;19918;-73
2022/12/01 10:59:54;;;;;;;;;;;7.40;99.90;;;;;;4996199;28;20370;-72
2022/12/01 11:02:21;;;;;;;;;;;7.40;99.90;;;;;;4999934;28;19924;-73
2022/12/01 11:04:52;;;;;;;;;;;7.50;99.90;;;;;;5002377;28;20271;-73
2022/12/01 11:07:29;;;;;;;;;;;7.40;99.90;;;;;;4986328;28;19940;-73
2022/12/01 11:10:12;;;;;;;;;;;7.50;99.90;;;;;;4998995;28;19928;-73
2022/12/01 11:12:38;;;;;;;;;;;7.40;99.90;;;;;;4978589;28;19941;-74
2022/12/01 11:15:04;;;;;;;;;;;7.40;99.90;;;;;;5000085;28;20417;-73
2022/12/01 11:17:29;;;;;;;;;;;7.30;99.90;;;;;;4997416;28;19918;-73
2022/12/01 11:19:55;;;;;;;;;;;7.40;99.90;;;;;;5001878;28;20289;-74
2022/12/01 11:22:27;;;;;;;;;;;7.30;99.90;;;;;;4984017;28;19917;-73
2022/12/01 11:24:57;;;;;;;;;;;7.30;99.90;;;;;;5004581;28;19937;-72
2022/12/01 11:27:28;;;;;;;;;;;7.30;99.90;;;;;;5007216;28;19967;-73
2022/12/01 11:29:55;;;;;;;;;;;7.30;99.90;;;;;;4984584;28;19913;-73
2022/12/01 11:32:21;;;;;;;;;;;7.20;99.90;;;;;;5001366;28;19929;-74
2022/12/01 11:34:48;;;;;;;;;;;7.20;99.90;;;;;;4982109;28;19913;-71
2022/12/01 11:37:18;;;;;;;;;;;7.20;99.90;;;;;;4998441;28;20012;-73
2022/12/01 11:39:46;;;;;;;;;;;7.20;99.90;;;;;;4999789;28;19925;-72
2022/12/01 11:42:25;;;;;;;;;;;7.10;99.90;;;;;;4998282;28;21439;-72
2022/12/01 11:45:06;;;;;;;;;;;7.10;99.90;;;;;;4981298;28;20306;-72
2022/12/01 11:47:32;;;;;;;;;;;7.10;99.90;;;;;;4981594;28;19921;-72
2022/12/01 11:49:59;;;;;;;;;;;7.10;99.90;;;;;;5004021;28;19918;-73
2022/12/01 11:52:28;;;;;;;;;;;7.10;99.90;;;;;;4979541;28;19922;-73
2022/12/01 11:54:55;;;;;;;;;;;7.20;99.90;;;;;;5004887;28;19917;-73
2022/12/01 11:57:20;;;;;;;;;;;7.20;99.90;;;;;;5000771;28;19918;-72
2022/12/01 11:59:46;;;;;;;;;;;7.20;99.90;;;;;;4999299;28;19973;-73
2022/12/01 12:02:14;;;;;;;;;;;7.20;99.90;;;;;;4999407;28;19921;-73
2022/12/01 12:04:50;;;;;;;;;;;7.30;99.90;;;;;;4997688;28;20414;-73
2022/12/01 12:07:31;;;;;;;;;;;7.30;99.90;;;;;;4978191;28;19925;-73
2022/12/01 12:10:15;;;;;;;;;;;7.30;99.90;;;;;;4979481;28;19936;-73
2022/12/01 12:12:54;;;;;;;;;;;7.30;99.90;;;;;;5001208;28;20008;-73
2022/12/01 12:15:38;;;;;;;;;;;7.30;99.90;;;;;;5002095;28;19914;-74
2022/12/01 12:18:29;;;;;;;;;;;7.30;99.90;;;;;;4996608;28;19980;-73
2022/12/01 12:21:01;;;;;;;;;;;7.30;99.90;;;;;;4995673;28;19919;-73
2022/12/01 12:23:40;;;;;;;;;;;7.40;99.90;;;;;;4996841;28;19921;-70
2022/12/01 12:26:08;;;;;;;;;;;7.40;99.90;;;;;;4983612;28;19921;-73
2022/12/01 12:28:52;;;;;;;;;;;7.30;99.90;;;;;;4997488;28;20396;-73
2022/12/01 12:31:20;;;;;;;;;;;7.30;99.90;;;;;;4997225;28;19925;-73
2022/12/01 12:33:55;;;;;;;;;;;7.40;99.90;;;;;;4998620;28;19913;-74
2022/12/01 12:36:33;;;;;;;;;;;7.30;99.90;;;;;;5002386;28;19914;-72
2022/12/01 12:39:23;;;;;;;;;;;7.30;99.90;;;;;;5000349;28;19960;-73
2022/12/01 12:41:53;;;;;;;;;;;7.30;99.90;;;;;;4982797;28;19926;-73
2022/12/01 12:44:19;;;;;;;;;;;7.30;99.90;;;;;;5004419;28;19920;-72
2022/12/01 12:46:51;;;;;;;;;;;7.40;99.90;;;;;;5004474;28;20016;-72
2022/12/01 12:49:27;;;;;;;;;;;7.30;99.90;;;;;;5010452;28;19921;-71
2022/12/01 12:51:57;;;;;;;;;;;7.30;99.90;;;;;;5005451;28;19956;-74
2022/12/01 12:54:41;;;;;;;;;;;7.30;99.90;;;;;;5004697;28;19917;-73
2022/12/01 12:57:18;;;;;;;;;;;7.30;99.90;;;;;;5000830;28;19921;-74
2022/12/01 12:59:43;;;;;;;;;;;7.30;99.90;;;;;;5001648;28;19948;-71
2022/12/01 13:02:18;;;;;;;;;;;7.40;99.90;;;;;;5001079;28;20386;-73
2022/12/01 13:04:49;;;;;;;;;;;7.30;99.90;;;;;;4999489;28;20389;-74
2022/12/01 13:07:15;;;;;;;;;;;7.40;99.90;;;;;;5001722;28;19924;-74
2022/12/01 13:09:42;;;;;;;;;;;7.30;99.90;;;;;;4983766;28;19936;-73
2022/12/01 13:12:14;;;;;;;;;;;7.30;99.90;;;;;;5002668;28;20389;-74
2022/12/01 13:14:53;;;;;;;;;;;7.30;99.90;;;;;;5003955;28;20012;-74
2022/12/01 13:17:22;;;;;;;;;;;7.30;99.90;;;;;;5003174;28;19925;-73
2022/12/01 13:19:48;;;;;;;;;;;7.30;99.90;;;;;;5002136;28;19921;-73
2022/12/01 13:22:15;;;;;;;;;;;7.20;99.90;;;;;;5005626;28;19914;-73
2022/12/01 13:24:41;;;;;;;;;;;7.30;99.90;;;;;;4989079;28;20522;-73
2022/12/01 13:27:09;;;;;;;;;;;7.30;99.90;;;;;;5005551;28;19929;-73
2022/12/01 13:29:36;;;;;;;;;;;7.30;99.90;;;;;;4987084;28;20316;-74
2022/12/01 13:32:03;;;;;;;;;;;7.30;99.90;;;;;;5003865;28;20336;-73
2022/12/01 13:34:29;;;;;;;;;;;7.20;99.90;;;;;;4999805;28;19940;-71
2022/12/01 13:36:55;;;;;;;;;;;7.40;99.90;;;;;;5004219;28;19926;-73
2022/12/01 13:39:22;;;;;;;;;;;7.40;99.90;;;;;;4984770;28;19981;-73
2022/12/01 13:41:56;;;;;;;;;;;7.30;99.90;;;;;;4984279;28;19918;-73
2022/12/01 13:44:27;;;;;;;;;;;7.40;99.90;;;;;;4999920;28;19917;-72
2022/12/01 13:46:57;;;;;;;;;;;7.50;99.90;;;;;;4984604;28;19924;-73
2022/12/01 13:49:49;;;;;;;;;;;7.60;99.90;;;;;;5002412;28;20393;-72
2022/12/01 13:52:14;;;;;;;;;;;7.60;99.90;;;;;;4987284;28;20113;-74
2022/12/01 13:54:58;;;;;;;;;;;7.60;99.90;;;;;;4987185;28;19960;-74
2022/12/01 13:57:27;;;;;;;;;;;7.60;99.90;;;;;;4985533;28;19921;-73
2022/12/01 13:59:59;;;;;;;;;;;7.50;99.90;;;;;;4998001;28;20012;-73
2022/12/01 14:02:25;;;;;;;;;;;7.50;99.90;;;;;;4999301;28;20008;-73
2022/12/01 14:04:51;;;;;;;;;;;7.50;99.90;;;;;;5002088;28;19957;-74
2022/12/01 14:07:22;;;;;;;;;;;7.40;99.90;;;;;;4999497;28;20066;-73
2022/12/01 14:09:52;;;;;;;;;;;7.30;99.90;;;;;;5001887;28;20381;-73
2022/12/01 14:12:20;;;;;;;;;;;7.20;99.90;;;;;;4999405;28;19997;-73
2022/12/01 14:14:52;;;;;;;;;;;7.20;99.90;;;;;;5001049;28;19920;-73
2022/12/01 14:17:24;;;;;;;;;;;7.10;99.90;;;;;;4999321;28;19925;-72
2022/12/01 14:19:51;;;;;;;;;;;7.10;99.90;;;;;;5002733;28;19934;-72
2022/12/01 14:22:34;;;;;;;;;;;7.10;99.90;;;;;;5001421;28;19921;-73
2022/12/01 14:25:00;;;;;;;;;;;7.00;99.90;;;;;;4998857;28;19924;-73
2022/12/01 14:27:37;;;;;;;;;;;7.00;99.90;;;;;;5006101;28;20350;-73
2022/12/01 14:30:21;;;;;;;;;;;6.90;99.90;;;;;;5004535;28;19956;-73
2022/12/01 14:32:47;;;;;;;;;;;6.90;99.90;;;;;;4981347;28;20332;-74
2022/12/01 14:35:13;;;;;;;;;;;6.90;99.90;;;;;;4982512;28;19985;-73
2022/12/01 14:37:42;;;;;;;;;;;6.90;99.90;;;;;;5001943;28;20008;-73
2022/12/01 14:40:16;;;;;;;;;;;6.90;99.90;;;;;;4982141;28;19913;-73